Time;durP1;ratioP1;P1;durP2;ratioP2;P2;SDS_P1;SDS_P2;PMS_P1;PMS_P2;Temp;Humidity;BMP_temperature;BMP_pressure;BME280_temperature;BME280_humidity;BME280_pressure;Samples;Min_cycle;Max_cycle;Signal;HPM_P1;HPM_P2
2022/01/09 00:00:25;;;;;;;114.80;47.60;;;;;;;-0.92;76.43;99241.34;52608;1271;1016492;-62
2022/01/09 00:03:11;;;;;;;109.00;48.30;;;;;;;-0.93;76.57;99235.42;52535;1271;1016156;-62
2022/01/09 00:05:42;;;;;;;118.40;50.80;;;;;;;-0.92;76.55;99235.41;52548;1271;1016036;-62
2022/01/09 00:08:13;;;;;;;134.60;56.20;;;;;;;-0.92;76.63;99234.46;52544;1271;1016678;-62
2022/01/09 00:10:47;;;;;;;154.40;64.70;;;;;;;-0.92;76.66;99225.39;52542;1271;1016081;-62
2022/01/09 00:13:18;;;;;;;153.40;66.10;;;;;;;-0.93;76.71;99217.95;52584;1271;1017170;-62
2022/01/09 00:15:49;;;;;;;175.00;69.70;;;;;;;-0.94;76.63;99211.57;52524;1271;1016562;-62
2022/01/09 00:18:20;;;;;;;165.20;67.10;;;;;;;-0.95;76.89;99204.08;52508;1271;1019972;-61
2022/01/09 00:20:51;;;;;;;149.90;58.80;;;;;;;-0.97;76.87;99197.41;52555;1271;1016192;-61
2022/01/09 00:23:23;;;;;;;118.80;49.40;;;;;;;-1.00;76.95;99193.79;52569;1271;1016493;-62
2022/01/09 00:25:55;;;;;;;126.70;52.30;;;;;;;-1.03;76.77;99198.31;52580;1271;1016518;-62
2022/01/09 00:28:26;;;;;;;130.80;55.40;;;;;;;-1.03;76.88;99187.21;52589;1271;1016603;-62
2022/01/09 00:30:57;;;;;;;140.90;56.70;;;;;;;-1.06;76.84;99189.70;52502;1271;1016640;-62
2022/01/09 00:33:29;;;;;;;131.40;51.60;;;;;;;-1.08;76.93;99183.95;52590;1271;1016549;-62
2022/01/09 00:36:00;;;;;;;134.30;51.60;;;;;;;-1.09;76.94;99169.19;52425;1271;1016014;-62
2022/01/09 00:38:31;;;;;;;111.00;45.90;;;;;;;-1.11;76.97;99168.99;52516;1271;1016680;-62
2022/01/09 00:41:02;;;;;;;100.70;42.20;;;;;;;-1.12;76.95;99163.39;52595;1271;1016223;-62
2022/01/09 00:43:33;;;;;;;93.10;40.50;;;;;;;-1.13;76.82;99158.40;52501;1271;1016400;-62
2022/01/09 00:46:05;;;;;;;94.00;37.40;;;;;;;-1.18;76.82;99154.37;52625;1271;1016977;-62
2022/01/09 00:48:38;;;;;;;98.00;41.20;;;;;;;-1.18;76.83;99149.20;52643;1271;1016544;-63
2022/01/09 00:51:09;;;;;;;87.80;37.40;;;;;;;-1.19;76.85;99149.09;52633;1271;1016361;-62
2022/01/09 00:53:40;;;;;;;85.90;37.30;;;;;;;-1.21;76.95;99148.89;52545;1271;1019068;-62
2022/01/09 00:56:11;;;;;;;87.70;38.00;;;;;;;-1.24;76.91;99150.22;52588;1271;1016582;-62
2022/01/09 00:58:43;;;;;;;90.40;37.70;;;;;;;-1.28;76.88;99146.86;52596;1271;1016509;-62
2022/01/09 01:01:14;;;;;;;95.40;38.70;;;;;;;-1.32;76.99;99144.91;52536;1271;1016418;-62
2022/01/09 01:03:45;;;;;;;94.10;36.20;;;;;;;-1.33;76.93;99147.59;52680;1271;1016458;-62
2022/01/09 01:06:16;;;;;;;88.90;36.50;;;;;;;-1.35;76.99;99148.52;52546;1271;1016700;-62
2022/01/09 01:08:47;;;;;;;95.60;36.20;;;;;;;-1.35;77.07;99144.52;52598;1271;1019612;-61
2022/01/09 01:11:20;;;;;;;95.30;39.90;;;;;;;-1.39;77.03;99138.66;52535;1271;1017667;-61
2022/01/09 01:13:51;;;;;;;107.90;42.80;;;;;;;-1.41;76.97;99133.09;52753;1271;1016668;-61
2022/01/09 01:16:22;;;;;;;107.80;45.70;;;;;;;-1.40;77.06;99130.00;52680;1271;1016339;-62
2022/01/09 01:18:55;;;;;;;96.10;41.80;;;;;;;-1.40;77.01;99116.95;52780;1271;1016299;-62
2022/01/09 01:21:26;;;;;;;91.60;40.40;;;;;;;-1.40;77.06;99106.93;52743;1271;1018302;-62
2022/01/09 01:23:57;;;;;;;79.80;35.60;;;;;;;-1.39;77.12;99102.54;52684;1271;1016377;-62
2022/01/09 01:26:28;;;;;;;84.60;33.30;;;;;;;-1.43;77.07;99094.10;52628;1271;1016283;-62
2022/01/09 01:28:59;;;;;;;84.50;34.60;;;;;;;-1.47;77.09;99088.64;52527;1271;1019056;-62
2022/01/09 01:31:30;;;;;;;78.40;34.20;;;;;;;-1.51;77.16;99077.70;52633;1271;1016232;-62
2022/01/09 01:34:01;;;;;;;70.80;32.40;;;;;;;-1.52;77.05;99075.85;52610;1271;1018013;-62
2022/01/09 01:36:32;;;;;;;85.40;38.10;;;;;;;-1.51;76.99;99066.92;52696;1271;1016715;-63
2022/01/09 01:39:03;;;;;;;89.70;37.90;;;;;;;-1.53;77.04;99059.45;52684;1271;1016320;-63
2022/01/09 01:41:35;;;;;;;87.60;34.80;;;;;;;-1.54;77.19;99050.01;52566;1271;1015932;-63
2022/01/09 01:44:12;;;;;;;72.60;32.20;;;;;;;-1.57;77.15;99043.13;52577;1271;1018498;-63
2022/01/09 01:46:44;;;;;;;78.30;31.40;;;;;;;-1.64;77.11;99034.91;52519;1271;1017593;-63
2022/01/09 01:49:15;;;;;;;75.60;32.10;;;;;;;-1.67;77.19;99035.78;52478;1271;1015932;-63
2022/01/09 01:51:46;;;;;;;77.80;32.90;;;;;;;-1.67;77.31;99023.34;52658;1271;1016674;-63
2022/01/09 01:54:20;;;;;;;77.00;31.60;;;;;;;-1.69;77.38;99018.45;52510;1271;1016489;-63
2022/01/09 01:56:51;;;;;;;76.90;31.90;;;;;;;-1.70;77.47;99018.09;52633;1271;1015566;-63
2022/01/09 01:59:22;;;;;;;83.20;35.40;;;;;;;-1.69;77.42;99023.15;52625;1272;1016433;-63
2022/01/09 02:01:54;;;;;;;76.30;32.30;;;;;;;-1.72;77.27;99028.14;52562;1271;1015951;-61
2022/01/09 02:04:24;;;;;;;79.30;35.40;;;;;;;-1.77;77.50;99032.71;52616;1271;1016083;-62
2022/01/09 02:06:57;;;;;;;81.10;36.20;;;;;;;-1.83;77.58;99033.00;52528;1271;1016720;-62
2022/01/09 02:09:31;;;;;;;82.00;34.20;;;;;;;-1.83;77.77;99033.88;52680;1271;1016632;-62
2022/01/09 02:12:02;;;;;;;84.00;34.30;;;;;;;-1.82;77.84;99032.45;52505;1271;1016158;-62
2022/01/09 02:14:36;;;;;;;77.60;32.40;;;;;;;-1.84;77.89;99031.15;52540;1271;1015777;-62
2022/01/09 02:17:08;;;;;;;77.90;31.90;;;;;;;-1.90;77.85;99028.54;52495;1271;1016046;-62
2022/01/09 02:19:39;;;;;;;74.40;31.10;;;;;;;-1.95;78.03;99028.52;52563;1271;1015758;-62
2022/01/09 02:22:11;;;;;;;79.10;32.90;;;;;;;-1.98;78.17;99023.17;52481;1272;1016234;-62
2022/01/09 02:24:43;;;;;;;71.50;31.40;;;;;;;-1.96;78.03;99019.94;52520;1272;1016394;-61
2022/01/09 02:27:17;;;;;;;71.50;29.00;;;;;;;-1.94;78.10;99014.66;52550;1271;1016233;-62
2022/01/09 02:29:49;;;;;;;68.70;29.50;;;;;;;-1.93;78.10;99006.35;52527;1271;1016082;-62
2022/01/09 02:32:20;;;;;;;73.40;31.30;;;;;;;-1.90;78.05;99001.61;52511;1273;1016147;-62
2022/01/09 02:34:51;;;;;;;68.00;28.50;;;;;;;-1.89;77.90;98996.64;52566;1271;1015908;-62
2022/01/09 02:37:22;;;;;;;70.10;29.70;;;;;;;-1.88;77.84;99000.13;52518;1271;1016350;-62
2022/01/09 02:39:54;;;;;;;73.50;29.50;;;;;;;-1.89;77.87;98997.90;52602;1271;1016238;-62
2022/01/09 02:42:29;;;;;;;65.60;30.00;;;;;;;-1.92;77.94;98989.20;52584;1271;1016768;-62
2022/01/09 02:45:00;;;;;;;71.00;33.40;;;;;;;-1.94;77.96;98980.59;52522;1271;1016196;-61
2022/01/09 02:47:32;;;;;;;67.00;30.50;;;;;;;-1.94;77.95;98976.60;52611;1271;1017055;-61
2022/01/09 02:50:12;;;;;;;72.50;30.80;;;;;;;-1.95;77.98;98974.27;52642;1271;1016172;-62
2022/01/09 02:52:57;;;;;;;70.10;29.00;;;;;;;-1.97;77.98;98970.42;52624;1271;1018966;-62
2022/01/09 02:55:29;;;;;;;71.20;29.60;;;;;;;-1.97;77.87;98966.13;52623;1271;1016296;-62
2022/01/09 02:58:01;;;;;;;74.20;32.20;;;;;;;-1.99;77.97;98954.77;52553;1271;1016859;-61
2022/01/09 03:00:34;;;;;;;70.90;29.50;;;;;;;-2.00;77.85;98943.70;52572;1271;1016294;-62
2022/01/09 03:03:06;;;;;;;68.60;28.60;;;;;;;-2.01;78.05;98944.11;52598;1271;1016505;-62
2022/01/09 03:05:38;;;;;;;66.00;27.30;;;;;;;-2.03;78.08;98935.38;52505;1271;1016324;-62
2022/01/09 03:08:10;;;;;;;69.00;26.30;;;;;;;-2.01;78.04;98927.39;52621;1271;1016714;-62
2022/01/09 03:10:41;;;;;;;63.00;26.40;;;;;;;-2.01;78.14;98925.73;52504;1271;1020065;-61
2022/01/09 03:13:14;;;;;;;62.90;28.10;;;;;;;-1.99;78.13;98920.77;52559;1271;1019512;-62
2022/01/09 03:15:45;;;;;;;62.70;24.40;;;;;;;-2.00;77.94;98919.46;52504;1272;1016292;-61
2022/01/09 03:18:16;;;;;;;63.30;26.00;;;;;;;-2.01;77.96;98921.45;52561;1271;1016616;-62
2022/01/09 03:20:47;;;;;;;60.90;25.90;;;;;;;-2.03;78.03;98922.80;52522;1271;1017896;-61
2022/01/09 03:23:18;;;;;;;60.70;25.40;;;;;;;-2.06;78.09;98924.52;52589;1271;1016513;-61
2022/01/09 03:25:50;;;;;;;59.00;24.90;;;;;;;-2.08;78.13;98922.63;52548;1271;1017068;-62
2022/01/09 03:28:21;;;;;;;61.30;25.50;;;;;;;-2.09;78.18;98925.77;52493;1271;1016656;-62
2022/01/09 03:30:52;;;;;;;65.30;24.30;;;;;;;-2.12;78.19;98925.29;52654;1271;1018348;-62
2022/01/09 03:33:23;;;;;;;58.00;24.90;;;;;;;-2.11;78.23;98924.27;52508;1272;1016324;-62
2022/01/09 03:35:54;;;;;;;63.30;23.10;;;;;;;-2.11;78.24;98919.88;52592;1271;1016411;-61
2022/01/09 03:38:25;;;;;;;59.70;23.10;;;;;;;-2.10;78.26;98919.92;52526;1272;1016775;-61
2022/01/09 03:40:57;;;;;;;57.40;25.20;;;;;;;-2.11;78.09;98919.81;52581;1271;1016625;-62
2022/01/09 03:43:28;;;;;;;63.90;25.80;;;;;;;-2.15;78.12;98922.78;52599;1271;1016076;-61
2022/01/09 03:45:59;;;;;;;71.30;26.90;;;;;;;-2.15;78.32;98922.16;52607;1271;1016235;-62
2022/01/09 03:48:32;;;;;;;61.00;26.60;;;;;;;-2.15;78.25;98920.28;52530;1271;1015912;-62
2022/01/09 03:51:03;;;;;;;60.30;26.90;;;;;;;-2.21;78.24;98915.43;52670;1271;1016524;-62
2022/01/09 03:53:34;;;;;;;67.00;26.30;;;;;;;-2.27;78.37;98914.30;52683;1271;1020164;-62
2022/01/09 03:56:08;;;;;;;58.40;25.10;;;;;;;-2.30;78.46;98912.11;52603;1271;1015835;-62
2022/01/09 03:58:40;;;;;;;66.90;25.80;;;;;;;-2.33;78.60;98905.48;52679;1271;1016711;-61
2022/01/09 04:01:11;;;;;;;62.20;25.60;;;;;;;-2.34;78.73;98911.20;52639;1273;1016290;-62
2022/01/09 04:03:42;;;;;;;59.90;24.40;;;;;;;-2.34;78.76;98910.89;52666;1271;1017679;-61
2022/01/09 04:06:13;;;;;;;52.20;23.80;;;;;;;-2.34;78.65;98909.33;52900;1271;1016405;-62
2022/01/09 04:08:44;;;;;;;53.60;23.10;;;;;;;-2.36;78.77;98908.75;52541;1271;1016684;-61
2022/01/09 04:11:22;;;;;;;62.20;23.40;;;;;;;-2.42;78.87;98909.10;52596;1272;1016515;-61
2022/01/09 04:13:54;;;;;;;55.30;23.70;;;;;;;-2.43;78.99;98912.89;52614;1272;1016394;-62
2022/01/09 04:16:29;;;;;;;57.60;23.10;;;;;;;-2.41;79.04;98911.90;52650;1271;1015946;-62
2022/01/09 04:19:00;;;;;;;59.70;26.40;;;;;;;-2.43;79.03;98904.67;52600;1271;1016430;-62
2022/01/09 04:21:31;;;;;;;56.70;24.20;;;;;;;-2.43;78.93;98902.95;52681;1271;1016922;-63
2022/01/09 04:24:02;;;;;;;56.90;23.10;;;;;;;-2.42;79.05;98905.20;52563;1272;1016398;-62
2022/01/09 04:26:33;;;;;;;58.80;25.00;;;;;;;-2.41;78.92;98904.33;52659;1272;1019173;-63
2022/01/09 04:29:05;;;;;;;54.80;22.20;;;;;;;-2.41;79.02;98905.73;52538;1271;1016434;-62
2022/01/09 04:31:36;;;;;;;56.10;22.80;;;;;;;-2.42;78.92;98904.90;52625;1271;1017321;-62
2022/01/09 04:34:08;;;;;;;58.70;23.60;;;;;;;-2.41;79.04;98901.52;52648;1271;1017390;-62
2022/01/09 04:36:39;;;;;;;57.90;24.10;;;;;;;-2.42;79.19;98900.04;52549;1271;1015958;-61
2022/01/09 04:39:10;;;;;;;54.30;23.40;;;;;;;-2.41;79.23;98899.88;52579;1271;1016555;-62
2022/01/09 04:41:40;;;;;;;56.50;22.60;;;;;;;-2.41;79.23;98899.03;52480;1272;1016520;-62
2022/01/09 04:44:12;;;;;;;54.50;22.50;;;;;;;-2.43;79.13;98897.33;52578;1271;1016682;-61
2022/01/09 04:46:50;;;;;;;53.60;21.30;;;;;;;-2.44;79.21;98890.41;52526;1271;1016462;-62
2022/01/09 04:49:24;;;;;;;58.00;21.90;;;;;;;-2.46;79.28;98891.61;52503;1271;1017462;-61
2022/01/09 04:51:57;;;;;;;57.20;23.40;;;;;;;-2.49;79.44;98888.87;52594;1271;1016504;-61
2022/01/09 04:54:28;;;;;;;53.60;21.90;;;;;;;-2.50;79.38;98894.61;52564;1272;1016464;-61
2022/01/09 04:57:01;;;;;;;53.70;21.90;;;;;;;-2.52;79.46;98896.05;52478;1271;1016352;-61
2022/01/09 04:59:33;;;;;;;53.10;22.80;;;;;;;-2.53;79.59;98891.54;52585;1271;1016716;-61
2022/01/09 05:02:05;;;;;;;53.60;21.70;;;;;;;-2.53;79.58;98883.98;52651;1271;1016351;-62
2022/01/09 05:04:37;;;;;;;53.50;22.00;;;;;;;-2.54;79.70;98883.52;52586;1271;1017131;-62
2022/01/09 05:07:09;;;;;;;54.70;22.90;;;;;;;-2.54;79.53;98876.11;52575;1271;1016641;-62
2022/01/09 05:09:40;;;;;;;48.60;21.10;;;;;;;-2.57;79.68;98874.53;52615;1271;1016593;-62
2022/01/09 05:12:12;;;;;;;54.20;22.00;;;;;;;-2.59;79.71;98872.70;52509;1271;1016426;-62
2022/01/09 05:14:45;;;;;;;45.20;19.20;;;;;;;-2.60;79.88;98875.91;52667;1271;1019536;-62
2022/01/09 05:17:15;;;;;;;53.10;20.70;;;;;;;-2.61;79.90;98871.44;52505;1271;1016593;-62
2022/01/09 05:19:50;;;;;;;49.40;21.00;;;;;;;-2.61;79.77;98872.05;52585;1272;1016116;-62
2022/01/09 05:22:22;;;;;;;47.70;19.00;;;;;;;-2.61;79.87;98866.72;52493;1272;1017901;-62
2022/01/09 05:24:54;;;;;;;48.40;20.40;;;;;;;-2.62;79.75;98870.36;52571;1273;1016041;-62
2022/01/09 05:27:26;;;;;;;45.80;19.40;;;;;;;-2.62;79.85;98862.63;52587;1271;1016852;-62
2022/01/09 05:29:57;;;;;;;52.60;20.10;;;;;;;-2.61;79.89;98859.86;52557;1272;1016181;-62
2022/01/09 05:32:28;;;;;;;51.50;20.10;;;;;;;-2.60;79.86;98859.61;52539;1272;1016369;-62
2022/01/09 05:34:59;;;;;;;51.80;21.10;;;;;;;-2.60;79.91;98861.02;52575;1271;1016973;-62
2022/01/09 05:37:30;;;;;;;61.70;26.30;;;;;;;-2.60;79.97;98861.88;52503;1271;1016454;-62
2022/01/09 05:40:01;;;;;;;55.80;22.50;;;;;;;-2.62;79.97;98862.48;52579;1272;1016720;-62
2022/01/09 05:42:32;;;;;;;53.90;22.80;;;;;;;-2.65;79.91;98859.87;40738;1273;2018354;-62
2022/01/09 05:45:03;;;;;;;;;;;;;;;-2.64;79.99;98855.02;38541;1271;2015880;-62
2022/01/09 05:47:34;;;;;;;53.90;20.80;;;;;;;-2.64;79.90;98848.08;38525;1273;2016076;-62
2022/01/09 05:50:06;;;;;;;47.40;18.90;;;;;;;-2.65;79.89;98854.64;37899;1273;2016073;-62
2022/01/09 05:52:37;;;;;;;52.20;20.40;;;;;;;-2.66;79.84;98855.38;39480;1271;2016590;-61
2022/01/09 05:55:10;;;;;;;61.70;23.60;;;;;;;-2.66;79.90;98856.55;38573;1272;2016331;-62
2022/01/09 05:57:42;;;;;;;50.70;22.10;;;;;;;-2.68;79.87;98859.80;39472;1271;2015834;-62
2022/01/09 06:00:12;;;;;;;50.70;22.10;;;;;;;-2.67;79.79;98857.36;39388;1273;2016249;-62
2022/01/09 06:02:43;;;;;;;57.00;27.30;;;;;;;-2.64;79.78;98860.80;38716;1273;2016220;-62
2022/01/09 06:05:14;;;;;;;58.80;24.00;;;;;;;-2.58;79.69;98865.96;40118;1272;2015838;-62
2022/01/09 06:07:45;;;;;;;53.90;24.70;;;;;;;-2.59;79.49;98864.04;40018;1271;2016227;-62
2022/01/09 06:10:17;;;;;;;57.80;24.50;;;;;;;-2.59;79.67;98868.93;39456;1271;2016553;-62
2022/01/09 06:12:48;;;;;;;63.00;25.20;;;;;;;-2.59;79.71;98864.96;40049;1271;2015835;-62
2022/01/09 06:15:21;;;;;;;65.70;27.20;;;;;;;-2.59;79.70;98869.19;40168;1271;2017075;-62
2022/01/09 06:17:53;;;;;;;79.60;30.50;;;;;;;-2.62;79.63;98867.99;38645;1271;2016090;-62
2022/01/09 06:20:24;;;;;;;79.60;30.50;;;;;;;-2.62;79.59;98871.38;39375;1273;2016577;-62
2022/01/09 06:22:55;;;;;;;74.60;33.90;;;;;;;-2.59;79.55;98868.26;40855;1271;2016232;-61
2022/01/09 06:25:26;;;;;;;75.70;30.70;;;;;;;-2.53;79.31;98867.34;39968;1273;2015848;-61
2022/01/09 06:27:58;;;;;;;72.80;30.20;;;;;;;-2.54;79.40;98861.42;40854;1272;2016578;-62
2022/01/09 06:30:29;;;;;;;94.20;42.00;;;;;;;-2.54;79.35;98857.22;39394;1273;2015682;-61
2022/01/09 06:33:00;;;;;;;90.00;42.30;;;;;;;-2.54;79.33;98858.22;39293;1273;2016244;-61
2022/01/09 06:35:31;;;;;;;86.10;40.30;;;;;;;-2.55;79.29;98857.23;38636;1272;2016598;-61
2022/01/09 06:38:04;;;;;;;81.80;37.80;;;;;;;-2.57;79.20;98856.19;39404;1271;2016118;-61
2022/01/09 06:40:35;;;;;;;96.70;44.20;;;;;;;-2.60;79.12;98855.02;37967;1273;2015825;-61
2022/01/09 06:43:07;;;;;;;90.40;40.80;;;;;;;-2.63;79.19;98856.16;38047;1273;2015993;-62
2022/01/09 06:45:39;;;;;;;94.70;42.90;;;;;;;-2.67;79.18;98853.45;38783;1273;2016569;-63
2022/01/09 06:48:10;;;;;;;98.10;43.10;;;;;;;-2.72;79.26;98852.23;38595;1272;2019291;-62
2022/01/09 06:50:43;;;;;;;103.10;45.50;;;;;;;-2.73;79.29;98856.48;40836;1273;2016553;-62
2022/01/09 06:53:14;;;;;;;110.40;51.80;;;;;;;-2.74;79.28;98858.91;46651;1273;2016076;-62
2022/01/09 06:55:46;;;;;;;98.40;46.90;;;;;;;-2.74;79.44;98853.38;52538;1271;1016532;-62
2022/01/09 06:58:18;;;;;;;85.10;36.60;;;;;;;-2.75;79.40;98855.42;52575;1273;1016478;-62
2022/01/09 07:00:52;;;;;;;79.10;36.80;;;;;;;-2.77;79.45;98853.91;52485;1273;1016781;-62
2022/01/09 07:03:24;;;;;;;81.70;37.60;;;;;;;-2.80;79.42;98848.96;52597;1271;1017826;-62
2022/01/09 07:05:55;;;;;;;74.00;35.80;;;;;;;-2.82;79.52;98851.21;52704;1271;1016195;-62
2022/01/09 07:08:27;;;;;;;72.20;30.10;;;;;;;-2.83;79.58;98847.88;52482;1272;1016372;-62
2022/01/09 07:10:58;;;;;;;72.60;31.90;;;;;;;-2.83;79.58;98847.02;52458;1272;1016771;-62
2022/01/09 07:13:29;;;;;;;70.80;30.40;;;;;;;-2.86;79.57;98842.94;52538;1271;1016326;-62
2022/01/09 07:16:01;;;;;;;74.10;32.20;;;;;;;-2.86;79.55;98839.73;52651;1272;1016131;-62
2022/01/09 07:18:32;;;;;;;73.90;31.40;;;;;;;-2.85;79.68;98839.64;52535;1271;1016374;-62
2022/01/09 07:21:03;;;;;;;72.00;33.20;;;;;;;-2.86;79.62;98836.15;52500;1272;1016700;-62
2022/01/09 07:23:34;;;;;;;73.90;31.00;;;;;;;-2.85;79.72;98839.34;52475;1272;1019064;-62
2022/01/09 07:26:06;;;;;;;70.80;30.20;;;;;;;-2.85;79.73;98839.10;52520;1271;1017584;-61
2022/01/09 07:28:37;;;;;;;59.10;27.60;;;;;;;-2.84;79.85;98840.56;52646;1273;1016279;-61
2022/01/09 07:31:08;;;;;;;59.10;27.90;;;;;;;-2.83;79.71;98834.61;52445;1273;1016542;-61
2022/01/09 07:33:39;;;;;;;80.50;38.10;;;;;;;-2.84;79.85;98838.23;52481;1273;1015894;-61
2022/01/09 07:36:10;;;;;;;66.20;32.00;;;;;;;-2.85;79.87;98837.70;52470;1271;1016470;-61
2022/01/09 07:38:42;;;;;;;62.90;28.20;;;;;;;-2.85;79.91;98839.11;52493;1273;1017017;-61
2022/01/09 07:41:14;;;;;;;62.90;27.20;;;;;;;-2.86;80.00;98838.97;52491;1271;1016574;-61
2022/01/09 07:43:45;;;;;;;62.80;27.70;;;;;;;-2.85;80.05;98833.63;52592;1271;1016457;-62
2022/01/09 07:46:16;;;;;;;66.00;33.20;;;;;;;-2.84;80.17;98833.23;52443;1272;1015881;-61
2022/01/09 07:48:48;;;;;;;72.70;34.10;;;;;;;-2.81;80.24;98832.93;52569;1273;1016577;-61
2022/01/09 07:51:20;;;;;;;78.10;34.00;;;;;;;-2.79;80.21;98837.25;52547;1272;1016398;-61
2022/01/09 07:53:53;;;;;;;72.10;35.90;;;;;;;-2.77;80.22;98834.48;52463;1271;1015952;-61
2022/01/09 07:56:24;;;;;;;86.80;38.80;;;;;;;-2.75;80.27;98834.90;52484;1272;1016861;-61
2022/01/09 07:58:55;;;;;;;81.60;38.20;;;;;;;-2.73;80.26;98834.69;52482;1271;1016126;-61
2022/01/09 08:01:26;;;;;;;80.80;39.00;;;;;;;-2.71;80.44;98839.95;52574;1271;1016246;-62
2022/01/09 08:03:57;;;;;;;72.50;34.80;;;;;;;-2.71;80.41;98839.17;52494;1271;1020379;-61
2022/01/09 08:06:28;;;;;;;84.40;37.90;;;;;;;-2.70;80.48;98841.12;52563;1273;1019072;-61
2022/01/09 08:08:59;;;;;;;79.20;34.30;;;;;;;-2.70;80.55;98835.79;52531;1274;1015823;-61
2022/01/09 08:11:30;;;;;;;78.60;35.40;;;;;;;-2.67;80.64;98837.23;52539;1271;1016698;-62
2022/01/09 08:14:01;;;;;;;76.70;34.30;;;;;;;-2.65;80.72;98834.06;52482;1272;1017006;-63
2022/01/09 08:16:32;;;;;;;70.60;31.90;;;;;;;-2.62;80.77;98835.16;52586;1272;1016679;-62
2022/01/09 08:19:03;;;;;;;67.50;30.00;;;;;;;-2.59;80.91;98830.64;52506;1273;1017833;-62
2022/01/09 08:21:34;;;;;;;68.00;30.60;;;;;;;-2.56;81.04;98828.93;52530;1271;1015736;-62
2022/01/09 08:24:06;;;;;;;60.80;28.90;;;;;;;-2.53;81.04;98825.67;52574;1272;1015850;-62
2022/01/09 08:26:37;;;;;;;66.40;30.20;;;;;;;-2.51;81.16;98826.23;52501;1272;1016408;-62
2022/01/09 08:29:08;;;;;;;68.80;29.20;;;;;;;-2.47;81.25;98824.41;52530;1273;1019735;-63
2022/01/09 08:31:39;;;;;;;70.10;30.50;;;;;;;-2.43;81.42;98826.36;52505;1273;1016358;-62
2022/01/09 08:34:11;;;;;;;69.20;29.10;;;;;;;-2.39;81.47;98826.51;52575;1272;1016709;-63
2022/01/09 08:36:42;;;;;;;68.60;30.20;;;;;;;-2.34;81.48;98822.80;52511;1273;1016485;-62
2022/01/09 08:39:13;;;;;;;54.00;25.10;;;;;;;-2.30;81.48;98824.34;52625;1271;1016246;-63
2022/01/09 08:41:44;;;;;;;58.50;24.30;;;;;;;-2.25;81.52;98821.41;52477;1271;1017310;-62
2022/01/09 08:44:15;;;;;;;55.80;25.30;;;;;;;-2.23;81.55;98823.63;53449;1271;1016601;-62
2022/01/09 08:46:46;;;;;;;61.10;25.20;;;;;;;-2.19;81.63;98824.55;52470;1273;1016270;-63
2022/01/09 08:49:17;;;;;;;53.20;22.50;;;;;;;-2.15;81.74;98821.08;52746;1272;1016680;-62
2022/01/09 08:51:48;;;;;;;49.40;20.10;;;;;;;-2.08;81.82;98821.53;52559;1273;1016690;-63
2022/01/09 08:54:20;;;;;;;46.20;20.30;;;;;;;-2.03;81.98;98820.56;52621;1272;1017007;-64
2022/01/09 08:56:52;;;;;;;43.90;19.00;;;;;;;-1.98;81.78;98824.73;52554;1272;1016343;-64
2022/01/09 08:59:23;;;;;;;52.10;18.90;;;;;;;-1.93;81.92;98820.70;52542;1271;1016123;-63
2022/01/09 09:01:56;;;;;;;56.30;23.60;;;;;;;-1.89;81.93;98823.45;52508;1273;1016127;-64
2022/01/09 09:04:27;;;;;;;53.80;24.40;;;;;;;-1.84;81.86;98821.62;52591;1271;1019529;-63
2022/01/09 09:06:58;;;;;;;64.00;28.00;;;;;;;-1.77;81.90;98825.36;52721;1272;1016328;-64
2022/01/09 09:09:30;;;;;;;53.80;24.40;;;;;;;-1.72;81.93;98823.96;52621;1273;1016567;-64
2022/01/09 09:12:02;;;;;;;56.30;23.60;;;;;;;-1.66;81.83;98822.88;52488;1272;1016434;-64
2022/01/09 09:14:33;;;;;;;49.40;20.40;;;;;;;-1.61;81.83;98823.69;52534;1271;1015978;-63
2022/01/09 09:17:04;;;;;;;52.80;21.90;;;;;;;-1.56;81.93;98817.67;52608;1271;1015972;-63
2022/01/09 09:19:35;;;;;;;51.30;20.70;;;;;;;-1.51;81.68;98811.84;52658;1271;1015982;-62
2022/01/09 09:22:07;;;;;;;49.20;21.40;;;;;;;-1.45;81.67;98811.92;52543;1272;1016715;-62
2022/01/09 09:24:38;;;;;;;49.90;22.10;;;;;;;-1.42;81.89;98811.91;52817;1271;1016354;-69
2022/01/09 09:27:10;;;;;;;49.10;20.50;;;;;;;-1.36;81.74;98816.73;53035;1271;1016279;-62
2022/01/09 09:29:41;;;;;;;55.30;21.80;;;;;;;-1.30;81.80;98817.05;52489;1271;1016596;-63
2022/01/09 09:32:13;;;;;;;49.70;20.70;;;;;;;-1.25;81.65;98812.75;52582;1271;1016453;-62
2022/01/09 09:34:44;;;;;;;38.20;15.30;;;;;;;-1.19;81.75;98807.60;52710;1272;1016595;-61
2022/01/09 09:37:15;;;;;;;47.30;18.60;;;;;;;-1.16;81.60;98804.19;52489;1271;1016733;-61
2022/01/09 09:39:46;;;;;;;46.30;18.80;;;;;;;-1.11;81.62;98805.38;52737;1272;1016726;-61
2022/01/09 09:42:17;;;;;;;46.10;19.20;;;;;;;-1.06;81.55;98799.70;52386;1271;1016678;-60
2022/01/09 09:44:49;;;;;;;45.50;18.80;;;;;;;-1.01;81.60;98798.83;52472;1271;1016181;-60
2022/01/09 09:47:22;;;;;;;45.20;19.60;;;;;;;-0.95;81.73;98801.45;52650;1271;1018135;-61
2022/01/09 09:49:54;;;;;;;43.20;19.70;;;;;;;-0.89;81.70;98797.06;52469;1272;1017061;-60
2022/01/09 09:52:25;;;;;;;48.40;19.50;;;;;;;-0.83;81.64;98791.24;52495;1272;1016290;-60
2022/01/09 09:54:56;;;;;;;40.50;16.10;;;;;;;-0.78;81.50;98792.42;52508;1271;1015885;-61
2022/01/09 09:57:28;;;;;;;48.80;18.50;;;;;;;-0.74;81.40;98791.23;52443;1271;1016670;-60
2022/01/09 10:00:07;;;;;;;46.50;18.80;;;;;;;-0.71;81.40;98790.81;52580;1272;1018347;-59
2022/01/09 10:02:47;;;;;;;39.50;16.90;;;;;;;-0.68;81.34;98785.05;52602;1271;1016234;-60
2022/01/09 10:05:20;;;;;;;44.00;18.50;;;;;;;-0.63;81.37;98780.70;52533;1271;1016631;-60
2022/01/09 10:07:52;;;;;;;46.60;19.80;;;;;;;-0.59;81.36;98774.93;52592;1271;1018850;-60
2022/01/09 10:10:31;;;;;;;43.90;18.70;;;;;;;-0.56;81.37;98777.19;52584;1271;1017161;-63
2022/01/09 10:13:10;;;;;;;45.60;19.30;;;;;;;-0.53;81.39;98779.14;52496;1272;1016381;-62
2022/01/09 10:15:49;;;;;;;43.40;18.70;;;;;;;-0.50;81.33;98779.28;52617;1271;1016287;-60
2022/01/09 10:18:40;;;;;;;48.10;19.10;;;;;;;-0.46;81.36;98775.39;52515;1272;1016745;-59
2022/01/09 10:21:13;;;;;;;44.30;18.60;;;;;;;-0.42;81.38;98772.35;52482;1271;1016028;-60
2022/01/09 10:24:01;;;;;;;47.00;20.60;;;;;;;-0.38;81.56;98773.24;52454;1271;1016390;-62
2022/01/09 10:26:35;;;;;;;40.40;18.70;;;;;;;-0.35;81.40;98770.86;52467;1273;1016193;-63
2022/01/09 10:29:08;;;;;;;44.70;18.10;;;;;;;-0.31;81.33;98768.64;52486;1271;1016653;-65
2022/01/09 10:31:45;;;;;;;45.60;17.50;;;;;;;-0.28;81.36;98765.48;52579;1271;1016019;-62
2022/01/09 10:34:17;;;;;;;41.80;17.10;;;;;;;-0.23;81.51;98768.43;52523;1271;1016097;-62
2022/01/09 10:36:51;;;;;;;44.30;17.90;;;;;;;-0.18;81.41;98772.51;52493;1271;1019726;-62
2022/01/09 10:39:31;;;;;;;42.70;17.70;;;;;;;-0.14;81.32;98767.66;52502;1271;1018000;-62
2022/01/09 10:42:05;;;;;;;41.70;15.30;;;;;;;-0.09;81.41;98766.02;52614;1271;1018366;-62
2022/01/09 10:44:39;;;;;;;37.20;14.60;;;;;;;-0.05;81.25;98760.14;52597;1271;1016352;-62
2022/01/09 10:47:14;;;;;;;42.90;16.70;;;;;;;-0.01;81.26;98762.69;52701;1271;1018185;-62
2022/01/09 10:49:49;;;;;;;44.30;17.00;;;;;;;0.04;81.18;98764.56;52617;1271;1019228;-61
2022/01/09 10:52:24;;;;;;;42.40;16.80;;;;;;;0.08;81.12;98767.39;52462;1271;1016171;-62
2022/01/09 10:54:57;;;;;;;40.90;17.20;;;;;;;0.13;81.16;98767.77;52572;1271;1016615;-61
2022/01/09 10:57:31;;;;;;;41.20;16.80;;;;;;;0.17;81.04;98770.77;52526;1271;1016198;-63
2022/01/09 11:00:10;;;;;;;39.50;17.30;;;;;;;0.21;81.05;98765.52;52463;1271;1016628;-63
2022/01/09 11:02:44;;;;;;;37.90;15.80;;;;;;;0.25;80.90;98764.85;52627;1271;1016538;-60
2022/01/09 11:05:15;;;;;;;37.60;15.20;;;;;;;0.28;80.73;98759.54;52617;1271;1016595;-62
2022/01/09 11:07:48;;;;;;;40.90;16.80;;;;;;;0.32;80.86;98759.73;52622;1271;1016593;-62
2022/01/09 11:10:21;;;;;;;33.30;14.60;;;;;;;0.37;80.66;98755.27;52536;1271;1020123;-63
2022/01/09 11:12:58;;;;;;;31.60;12.70;;;;;;;0.41;80.52;98751.41;52498;1272;1016733;-62
2022/01/09 11:15:35;;;;;;;35.60;14.60;;;;;;;0.47;80.53;98752.30;52380;1272;1018276;-62
2022/01/09 11:18:08;;;;;;;42.10;16.70;;;;;;;0.52;80.59;98750.08;52938;1271;1016575;-61
2022/01/09 11:20:41;;;;;;;39.40;16.00;;;;;;;0.57;80.23;98753.42;52507;1271;1017760;-63
2022/01/09 11:23:13;;;;;;;38.10;15.90;;;;;;;0.62;80.18;98755.98;54597;1271;1015458;-63